Aérodrome :
LOGIN :

S'inscrire | Disclaimer

   EN    FR    IT 

 










Légende :    VFR   VFR Marginal   IFR   IFR Intensif   IFR Très Intensif
Visi : 
Plafond : 
>= 8 km
>= 3000ft
5 à 8 km
1000 à 3000 ft
1500m à 5 km
500 à 1000 ft
800 à 1500m
200 à 500 ft
< 800m
< 200 ft
Symboles :   Orages  Brouillard  Fortes neiges  Fortes précipitations  Vent > 20 kt
SIGMETs :   Divers  Orages  Givrage  Turbulence  Onde Orograph.  Cendres Volcan.







- Altitude de l'aérodrome : 1161 ft
- Code IATA : RJL


LELO - Logroño-Agoncillo

DERNIER METAR :
  • 181200Z 10010KT 060V140 9999 SCT026 BKN065 15/09 Q1014

METARs EXPIRÉS :
  • 181130Z 09009KT 050V130 9999 SCT020 BKN060 15/10 Q1015
  • 181100Z 08010KT 040V120 9999 FEW017 SCT032 14/11 Q1015
  • 181030Z 07008KT 030V100 9999 FEW010 SCT032 BKN070 13/11 Q1015
  • 181000Z 06007KT 9000 -RA SCT023 BKN060 12/10 Q1016
  • 180930Z 07008KT 030V100 7000 -RA SCT014 BKN050 11/10 Q1016

TAF TAF LELO
Valide du 18 à 12h jusqu'au 18 à 21h UTC


181100Z 1812/1821 08010KT 9999 SCT025
PROB40
TEMPO 1812/1821 3000 RA SHRA BKN030TCU
PROB40
TEMPO 1812/1815 08015G25KT
Pas de NOTAMs connus pour ce terrain.
3 SIGMETs publiés pour la FIR Madrid (LECM) :
 
Orages noyés dans la masse
LECM SIGMET 7 VALID 181130/181400 LEVA
LECM MADRID FIR/UIR EMBD TS OBS AT 1121Z WI N3936 W00718 - N3916 W00340 - N3552 W00404 - N3620 W00711 - N3936 W00718 TOP FL300 MOV NE NC=
Turbulence forte
LECM SIGMET 6 VALID 181100/181500 LEVA
LECM MADRID FIR/UIR SEV TURB OBS AT 1036Z WI N4151 W00902 - N4157 W007 - N4457 W00828 - N4503 W01114 - N4151 W00902 FL220/340 MOV NW NC=
Turbulence forte
LECM SIGMET 4 VALID 180824/181200 LEVA
LECM MADRID FIR/UIR SEV TURB OBS AT 0824Z WI N4059 W00649 - N4144 W00530 - N3949 W00425 - N3909 W00547 - N4059 W00649 FL220/340 MOV NW NC=



MET'MAP, la Météo Aéronautique d'un coup d'oeil ! - Copyright ORBIFLY Décembre 2007 - Disclaimer

ORBIFLY MET'MAP TEAM :

Programmation & Développement : Alexandra Zaïnal
Conception & Développement : Baudouin d'Aumeries
Co-Programmation & Développement : Marc-Olivier Méhu
Soutien technique & logistique : Manuel Goepfert

Contact : metmap@orbifly.com




SOURCES & CREDITS :

   NOAA